sensor_id;sensor_type;location;lat;lon;timestamp;temperature;humidity
54168;DHT22;68429;50.958;3.592;2024-02-28T00:01:50;4.40;99.90
54168;DHT22;68429;50.958;3.592;2024-02-28T00:04:16;4.30;99.90
54168;DHT22;68429;50.958;3.592;2024-02-28T00:06:42;4.20;99.90
54168;DHT22;68429;50.958;3.592;2024-02-28T00:09:08;4.10;99.90
54168;DHT22;68429;50.958;3.592;2024-02-28T00:11:33;4.00;99.90
54168;DHT22;68429;50.958;3.592;2024-02-28T00:13:59;4.00;99.90
54168;DHT22;68429;50.958;3.592;2024-02-28T00:16:28;3.90;99.90
54168;DHT22;68429;50.958;3.592;2024-02-28T00:18:53;4.00;99.90
54168;DHT22;68429;50.958;3.592;2024-02-28T00:21:19;3.80;99.90
54168;DHT22;68429;50.958;3.592;2024-02-28T00:23:45;3.80;99.90
54168;DHT22;68429;50.958;3.592;2024-02-28T00:26:14;3.80;99.90
54168;DHT22;68429;50.958;3.592;2024-02-28T00:28:39;3.90;99.90
54168;DHT22;68429;50.958;3.592;2024-02-28T00:31:05;3.90;99.90
54168;DHT22;68429;50.958;3.592;2024-02-28T00:33:30;3.80;99.90
54168;DHT22;68429;50.958;3.592;2024-02-28T00:35:56;3.70;99.90
54168;DHT22;68429;50.958;3.592;2024-02-28T00:38:22;3.70;99.90
54168;DHT22;68429;50.958;3.592;2024-02-28T00:40:47;3.80;99.90
54168;DHT22;68429;50.958;3.592;2024-02-28T00:43:13;3.80;99.90
54168;DHT22;68429;50.958;3.592;2024-02-28T00:45:38;3.70;99.90
54168;DHT22;68429;50.958;3.592;2024-02-28T00:48:05;3.50;99.90
54168;DHT22;68429;50.958;3.592;2024-02-28T00:50:30;3.50;99.90
54168;DHT22;68429;50.958;3.592;2024-02-28T00:52:56;3.50;99.90
54168;DHT22;68429;50.958;3.592;2024-02-28T00:55:22;3.40;99.90
54168;DHT22;68429;50.958;3.592;2024-02-28T00:57:47;3.40;99.90
54168;DHT22;68429;50.958;3.592;2024-02-28T01:00:13;3.30;99.90
54168;DHT22;68429;50.958;3.592;2024-02-28T01:02:40;3.20;99.90
54168;DHT22;68429;50.958;3.592;2024-02-28T01:05:07;3.30;99.90
54168;DHT22;68429;50.958;3.592;2024-02-28T01:07:32;3.20;99.90
54168;DHT22;68429;50.958;3.592;2024-02-28T01:09:58;3.20;99.90
54168;DHT22;68429;50.958;3.592;2024-02-28T01:12:24;3.10;99.90
54168;DHT22;68429;50.958;3.592;2024-02-28T01:14:50;3.10;99.90
54168;DHT22;68429;50.958;3.592;2024-02-28T01:17:15;3.10;99.90
54168;DHT22;68429;50.958;3.592;2024-02-28T01:19:41;3.30;99.90
54168;DHT22;68429;50.958;3.592;2024-02-28T01:22:06;3.10;99.90
54168;DHT22;68429;50.958;3.592;2024-02-28T01:24:34;3.20;99.90
54168;DHT22;68429;50.958;3.592;2024-02-28T01:27:02;3.00;99.90
54168;DHT22;68429;50.958;3.592;2024-02-28T01:29:28;3.00;99.90
54168;DHT22;68429;50.958;3.592;2024-02-28T01:31:55;3.00;99.90
54168;DHT22;68429;50.958;3.592;2024-02-28T01:34:21;3.00;99.90
54168;DHT22;68429;50.958;3.592;2024-02-28T01:36:48;3.00;99.90
54168;DHT22;68429;50.958;3.592;2024-02-28T01:39:14;3.10;99.90
54168;DHT22;68429;50.958;3.592;2024-02-28T01:41:40;3.00;99.90
54168;DHT22;68429;50.958;3.592;2024-02-28T01:44:06;3.00;99.90
54168;DHT22;68429;50.958;3.592;2024-02-28T01:46:31;2.90;99.90
54168;DHT22;68429;50.958;3.592;2024-02-28T01:48:58;2.90;99.90
54168;DHT22;68429;50.958;3.592;2024-02-28T01:51:25;2.80;99.90
54168;DHT22;68429;50.958;3.592;2024-02-28T01:53:53;2.80;99.90
54168;DHT22;68429;50.958;3.592;2024-02-28T01:56:19;2.90;99.90
54168;DHT22;68429;50.958;3.592;2024-02-28T01:58:47;3.00;99.90
54168;DHT22;68429;50.958;3.592;2024-02-28T02:01:16;3.00;99.90
54168;DHT22;68429;50.958;3.592;2024-02-28T02:03:45;3.10;99.90
54168;DHT22;68429;50.958;3.592;2024-02-28T02:06:11;3.10;99.90
54168;DHT22;68429;50.958;3.592;2024-02-28T02:08:38;3.10;99.90
54168;DHT22;68429;50.958;3.592;2024-02-28T02:11:04;3.10;99.90
54168;DHT22;68429;50.958;3.592;2024-02-28T02:13:30;3.20;99.90
54168;DHT22;68429;50.958;3.592;2024-02-28T02:15:56;3.10;99.90
54168;DHT22;68429;50.958;3.592;2024-02-28T02:18:22;3.10;99.90
54168;DHT22;68429;50.958;3.592;2024-02-28T02:20:50;3.10;99.90
54168;DHT22;68429;50.958;3.592;2024-02-28T02:23:19;3.20;99.90
54168;DHT22;68429;50.958;3.592;2024-02-28T02:25:46;3.00;99.90
54168;DHT22;68429;50.958;3.592;2024-02-28T02:28:12;3.00;99.90
54168;DHT22;68429;50.958;3.592;2024-02-28T02:30:39;2.90;99.90
54168;DHT22;68429;50.958;3.592;2024-02-28T02:33:07;2.90;99.90
54168;DHT22;68429;50.958;3.592;2024-02-28T02:35:34;2.80;99.90
54168;DHT22;68429;50.958;3.592;2024-02-28T02:38:00;2.90;99.90
54168;DHT22;68429;50.958;3.592;2024-02-28T02:40:25;2.80;99.90
54168;DHT22;68429;50.958;3.592;2024-02-28T02:42:51;2.80;99.90
54168;DHT22;68429;50.958;3.592;2024-02-28T02:45:17;2.90;99.90
54168;DHT22;68429;50.958;3.592;2024-02-28T02:47:42;2.90;99.90
54168;DHT22;68429;50.958;3.592;2024-02-28T02:50:11;3.00;99.90
54168;DHT22;68429;50.958;3.592;2024-02-28T02:52:37;3.10;99.90
54168;DHT22;68429;50.958;3.592;2024-02-28T02:55:03;3.20;99.90
54168;DHT22;68429;50.958;3.592;2024-02-28T02:57:29;3.40;99.90
54168;DHT22;68429;50.958;3.592;2024-02-28T02:59:58;3.50;99.90
54168;DHT22;68429;50.958;3.592;2024-02-28T03:02:23;3.50;99.90
54168;DHT22;68429;50.958;3.592;2024-02-28T03:04:49;3.60;99.90
54168;DHT22;68429;50.958;3.592;2024-02-28T03:07:17;3.60;99.90
54168;DHT22;68429;50.958;3.592;2024-02-28T03:09:43;3.70;99.90
54168;DHT22;68429;50.958;3.592;2024-02-28T03:12:08;3.70;99.90
54168;DHT22;68429;50.958;3.592;2024-02-28T03:14:37;3.70;99.90
54168;DHT22;68429;50.958;3.592;2024-02-28T03:17:03;3.80;99.90
54168;DHT22;68429;50.958;3.592;2024-02-28T03:19:28;3.90;99.90
54168;DHT22;68429;50.958;3.592;2024-02-28T03:21:54;3.90;99.90
54168;DHT22;68429;50.958;3.592;2024-02-28T03:24:20;4.00;99.90
54168;DHT22;68429;50.958;3.592;2024-02-28T03:26:45;4.30;99.90
54168;DHT22;68429;50.958;3.592;2024-02-28T03:29:12;4.20;99.90
54168;DHT22;68429;50.958;3.592;2024-02-28T03:31:37;4.30;99.90
54168;DHT22;68429;50.958;3.592;2024-02-28T03:34:03;4.50;99.90
54168;DHT22;68429;50.958;3.592;2024-02-28T03:36:28;4.40;99.90
54168;DHT22;68429;50.958;3.592;2024-02-28T03:38:54;4.30;99.90
54168;DHT22;68429;50.958;3.592;2024-02-28T03:41:20;4.40;99.90
54168;DHT22;68429;50.958;3.592;2024-02-28T03:43:46;4.40;99.90
54168;DHT22;68429;50.958;3.592;2024-02-28T03:46:11;4.50;99.90
54168;DHT22;68429;50.958;3.592;2024-02-28T03:48:37;4.50;99.90
54168;DHT22;68429;50.958;3.592;2024-02-28T03:51:03;4.50;99.90
54168;DHT22;68429;50.958;3.592;2024-02-28T03:53:28;4.50;99.90
54168;DHT22;68429;50.958;3.592;2024-02-28T03:55:55;4.50;99.90
54168;DHT22;68429;50.958;3.592;2024-02-28T03:58:20;4.50;99.90
54168;DHT22;68429;50.958;3.592;2024-02-28T04:00:46;4.70;99.90
54168;DHT22;68429;50.958;3.592;2024-02-28T04:03:11;4.90;99.90
54168;DHT22;68429;50.958;3.592;2024-02-28T04:05:39;4.80;99.90
54168;DHT22;68429;50.958;3.592;2024-02-28T04:08:05;4.90;99.90
54168;DHT22;68429;50.958;3.592;2024-02-28T04:10:31;4.90;99.90
54168;DHT22;68429;50.958;3.592;2024-02-28T04:12:57;4.90;99.90
54168;DHT22;68429;50.958;3.592;2024-02-28T04:15:22;4.90;99.90
54168;DHT22;68429;50.958;3.592;2024-02-28T04:17:51;5.10;99.90
54168;DHT22;68429;50.958;3.592;2024-02-28T04:20:17;5.10;99.90
54168;DHT22;68429;50.958;3.592;2024-02-28T04:22:43;5.10;99.90
54168;DHT22;68429;50.958;3.592;2024-02-28T04:25:09;5.10;99.90
54168;DHT22;68429;50.958;3.592;2024-02-28T04:27:36;5.00;99.90
54168;DHT22;68429;50.958;3.592;2024-02-28T04:30:01;5.20;99.90
54168;DHT22;68429;50.958;3.592;2024-02-28T04:32:27;5.20;99.90
54168;DHT22;68429;50.958;3.592;2024-02-28T04:34:53;5.20;99.90
54168;DHT22;68429;50.958;3.592;2024-02-28T04:37:18;5.40;99.90
54168;DHT22;68429;50.958;3.592;2024-02-28T04:39:47;5.40;99.90
54168;DHT22;68429;50.958;3.592;2024-02-28T04:42:13;5.40;99.90
54168;DHT22;68429;50.958;3.592;2024-02-28T04:44:38;5.20;99.90
54168;DHT22;68429;50.958;3.592;2024-02-28T04:47:04;5.20;99.90
54168;DHT22;68429;50.958;3.592;2024-02-28T04:49:30;5.30;99.90
54168;DHT22;68429;50.958;3.592;2024-02-28T04:51:56;5.40;99.90
54168;DHT22;68429;50.958;3.592;2024-02-28T04:54:21;5.60;99.90
54168;DHT22;68429;50.958;3.592;2024-02-28T04:56:47;5.60;99.90
54168;DHT22;68429;50.958;3.592;2024-02-28T04:59:13;5.60;99.90
54168;DHT22;68429;50.958;3.592;2024-02-28T05:01:39;5.90;99.90
54168;DHT22;68429;50.958;3.592;2024-02-28T05:04:07;5.90;99.90
54168;DHT22;68429;50.958;3.592;2024-02-28T05:06:33;6.00;99.90
54168;DHT22;68429;50.958;3.592;2024-02-28T05:08:59;6.10;99.90
54168;DHT22;68429;50.958;3.592;2024-02-28T05:11:24;5.90;99.90
54168;DHT22;68429;50.958;3.592;2024-02-28T05:13:50;5.80;99.90
54168;DHT22;68429;50.958;3.592;2024-02-28T05:16:16;5.70;99.90
54168;DHT22;68429;50.958;3.592;2024-02-28T05:18:44;5.80;99.90
54168;DHT22;68429;50.958;3.592;2024-02-28T05:21:10;5.90;99.90
54168;DHT22;68429;50.958;3.592;2024-02-28T05:23:36;5.80;99.90
54168;DHT22;68429;50.958;3.592;2024-02-28T05:26:02;5.90;99.90
54168;DHT22;68429;50.958;3.592;2024-02-28T05:28:33;5.90;99.90
54168;DHT22;68429;50.958;3.592;2024-02-28T05:31:19;5.90;99.90
54168;DHT22;68429;50.958;3.592;2024-02-28T05:33:45;5.90;99.90
54168;DHT22;68429;50.958;3.592;2024-02-28T05:36:11;6.00;99.90
54168;DHT22;68429;50.958;3.592;2024-02-28T05:38:37;6.30;99.90
54168;DHT22;68429;50.958;3.592;2024-02-28T05:41:03;6.40;99.90
54168;DHT22;68429;50.958;3.592;2024-02-28T05:43:28;6.40;99.90
54168;DHT22;68429;50.958;3.592;2024-02-28T05:45:54;6.40;99.90
54168;DHT22;68429;50.958;3.592;2024-02-28T05:48:20;6.40;99.90
54168;DHT22;68429;50.958;3.592;2024-02-28T05:50:45;6.50;99.90
54168;DHT22;68429;50.958;3.592;2024-02-28T05:53:11;6.60;99.90
54168;DHT22;68429;50.958;3.592;2024-02-28T05:55:37;6.70;99.90
54168;DHT22;68429;50.958;3.592;2024-02-28T05:58:03;6.80;99.90
54168;DHT22;68429;50.958;3.592;2024-02-28T06:00:28;6.80;99.90
54168;DHT22;68429;50.958;3.592;2024-02-28T06:02:54;6.80;99.90
54168;DHT22;68429;50.958;3.592;2024-02-28T06:05:20;6.80;99.90
54168;DHT22;68429;50.958;3.592;2024-02-28T06:07:45;6.90;99.90
54168;DHT22;68429;50.958;3.592;2024-02-28T06:10:11;7.00;99.90
54168;DHT22;68429;50.958;3.592;2024-02-28T06:12:37;6.90;99.90
54168;DHT22;68429;50.958;3.592;2024-02-28T06:15:03;6.90;99.90
54168;DHT22;68429;50.958;3.592;2024-02-28T06:17:29;7.00;99.90
54168;DHT22;68429;50.958;3.592;2024-02-28T06:19:55;7.00;99.90
54168;DHT22;68429;50.958;3.592;2024-02-28T06:22:21;7.00;99.90
54168;DHT22;68429;50.958;3.592;2024-02-28T06:24:46;6.90;99.90
54168;DHT22;68429;50.958;3.592;2024-02-28T06:27:12;7.00;99.90
54168;DHT22;68429;50.958;3.592;2024-02-28T06:29:41;7.00;99.90
54168;DHT22;68429;50.958;3.592;2024-02-28T06:32:08;7.00;99.90
54168;DHT22;68429;50.958;3.592;2024-02-28T06:34:33;7.00;99.90
54168;DHT22;68429;50.958;3.592;2024-02-28T06:36:59;7.00;99.90
54168;DHT22;68429;50.958;3.592;2024-02-28T06:39:25;7.10;99.90
54168;DHT22;68429;50.958;3.592;2024-02-28T06:41:50;7.10;99.90
54168;DHT22;68429;50.958;3.592;2024-02-28T06:44:18;7.10;99.90
54168;DHT22;68429;50.958;3.592;2024-02-28T06:46:47;7.20;99.90
54168;DHT22;68429;50.958;3.592;2024-02-28T06:49:12;7.40;99.90
54168;DHT22;68429;50.958;3.592;2024-02-28T06:51:38;7.30;99.90
54168;DHT22;68429;50.958;3.592;2024-02-28T06:54:04;7.40;99.90
54168;DHT22;68429;50.958;3.592;2024-02-28T06:56:30;7.40;99.90
54168;DHT22;68429;50.958;3.592;2024-02-28T06:58:56;7.50;99.90
54168;DHT22;68429;50.958;3.592;2024-02-28T07:01:22;7.60;99.90
54168;DHT22;68429;50.958;3.592;2024-02-28T07:03:48;7.60;99.90
54168;DHT22;68429;50.958;3.592;2024-02-28T07:06:13;7.50;99.90
54168;DHT22;68429;50.958;3.592;2024-02-28T07:08:39;7.50;99.90
54168;DHT22;68429;50.958;3.592;2024-02-28T07:11:17;7.50;99.90
54168;DHT22;68429;50.958;3.592;2024-02-28T07:13:43;7.40;99.90
54168;DHT22;68429;50.958;3.592;2024-02-28T07:16:08;7.50;99.90
54168;DHT22;68429;50.958;3.592;2024-02-28T07:18:34;7.40;99.90
54168;DHT22;68429;50.958;3.592;2024-02-28T07:21:00;7.40;99.90
54168;DHT22;68429;50.958;3.592;2024-02-28T07:23:26;7.40;99.90
54168;DHT22;68429;50.958;3.592;2024-02-28T07:25:51;7.60;99.90
54168;DHT22;68429;50.958;3.592;2024-02-28T07:28:18;7.60;99.90
54168;DHT22;68429;50.958;3.592;2024-02-28T07:30:44;7.60;99.90
54168;DHT22;68429;50.958;3.592;2024-02-28T07:33:11;7.70;99.90
54168;DHT22;68429;50.958;3.592;2024-02-28T07:35:47;7.80;99.90
54168;DHT22;68429;50.958;3.592;2024-02-28T07:38:13;7.90;99.90
54168;DHT22;68429;50.958;3.592;2024-02-28T07:40:39;8.00;99.90
54168;DHT22;68429;50.958;3.592;2024-02-28T07:43:05;7.90;99.90
54168;DHT22;68429;50.958;3.592;2024-02-28T07:45:31;8.10;99.90
54168;DHT22;68429;50.958;3.592;2024-02-28T07:47:56;8.30;99.90
54168;DHT22;68429;50.958;3.592;2024-02-28T07:50:22;8.50;99.90
54168;DHT22;68429;50.958;3.592;2024-02-28T07:52:48;8.00;99.90
54168;DHT22;68429;50.958;3.592;2024-02-28T07:55:13;7.90;99.90
54168;DHT22;68429;50.958;3.592;2024-02-28T07:57:39;7.60;99.90
54168;DHT22;68429;50.958;3.592;2024-02-28T08:00:05;7.70;99.90
54168;DHT22;68429;50.958;3.592;2024-02-28T08:02:31;7.90;99.90
54168;DHT22;68429;50.958;3.592;2024-02-28T08:04:57;7.70;99.90
54168;DHT22;68429;50.958;3.592;2024-02-28T08:07:23;7.80;99.90
54168;DHT22;68429;50.958;3.592;2024-02-28T08:09:48;7.90;99.90
54168;DHT22;68429;50.958;3.592;2024-02-28T08:12:14;7.80;99.90
54168;DHT22;68429;50.958;3.592;2024-02-28T08:14:39;8.00;99.90
54168;DHT22;68429;50.958;3.592;2024-02-28T08:17:05;8.30;99.90
54168;DHT22;68429;50.958;3.592;2024-02-28T08:19:31;8.50;99.90
54168;DHT22;68429;50.958;3.592;2024-02-28T08:21:56;8.70;99.90
54168;DHT22;68429;50.958;3.592;2024-02-28T08:24:22;8.70;99.90
54168;DHT22;68429;50.958;3.592;2024-02-28T08:26:48;8.70;99.90
54168;DHT22;68429;50.958;3.592;2024-02-28T08:29:13;8.50;99.90
54168;DHT22;68429;50.958;3.592;2024-02-28T08:31:44;8.50;99.90
54168;DHT22;68429;50.958;3.592;2024-02-28T08:34:10;8.60;99.90
54168;DHT22;68429;50.958;3.592;2024-02-28T08:36:35;8.60;99.90
54168;DHT22;68429;50.958;3.592;2024-02-28T08:39:02;8.50;99.90
54168;DHT22;68429;50.958;3.592;2024-02-28T08:41:33;8.50;99.90
54168;DHT22;68429;50.958;3.592;2024-02-28T08:43:59;8.70;99.90
54168;DHT22;68429;50.958;3.592;2024-02-28T08:46:28;8.70;99.90
54168;DHT22;68429;50.958;3.592;2024-02-28T08:48:53;8.80;99.90
54168;DHT22;68429;50.958;3.592;2024-02-28T08:51:19;8.70;99.90
54168;DHT22;68429;50.958;3.592;2024-02-28T08:53:45;9.00;99.90
54168;DHT22;68429;50.958;3.592;2024-02-28T08:56:11;9.10;99.90
54168;DHT22;68429;50.958;3.592;2024-02-28T08:58:36;9.30;99.90
54168;DHT22;68429;50.958;3.592;2024-02-28T09:01:03;9.20;99.90
54168;DHT22;68429;50.958;3.592;2024-02-28T09:03:29;8.40;99.90
54168;DHT22;68429;50.958;3.592;2024-02-28T09:05:55;8.20;99.90
54168;DHT22;68429;50.958;3.592;2024-02-28T09:08:20;8.00;99.90
54168;DHT22;68429;50.958;3.592;2024-02-28T09:10:46;7.90;99.90
54168;DHT22;68429;50.958;3.592;2024-02-28T09:13:13;7.90;99.90
54168;DHT22;68429;50.958;3.592;2024-02-28T09:15:39;8.10;99.90
54168;DHT22;68429;50.958;3.592;2024-02-28T09:18:05;8.50;99.90
54168;DHT22;68429;50.958;3.592;2024-02-28T09:20:31;8.70;99.90
54168;DHT22;68429;50.958;3.592;2024-02-28T09:22:57;9.10;99.90
54168;DHT22;68429;50.958;3.592;2024-02-28T09:25:22;9.20;99.90
54168;DHT22;68429;50.958;3.592;2024-02-28T09:27:48;9.20;99.90
54168;DHT22;68429;50.958;3.592;2024-02-28T09:30:14;9.10;99.90
54168;DHT22;68429;50.958;3.592;2024-02-28T09:32:40;8.60;99.90
54168;DHT22;68429;50.958;3.592;2024-02-28T09:35:05;8.50;99.90
54168;DHT22;68429;50.958;3.592;2024-02-28T09:37:32;8.60;99.90
54168;DHT22;68429;50.958;3.592;2024-02-28T09:39:57;8.90;99.90
54168;DHT22;68429;50.958;3.592;2024-02-28T09:42:24;9.00;99.90
54168;DHT22;68429;50.958;3.592;2024-02-28T09:44:50;9.10;99.90
54168;DHT22;68429;50.958;3.592;2024-02-28T09:47:16;9.10;99.90
54168;DHT22;68429;50.958;3.592;2024-02-28T09:49:42;8.80;99.90
54168;DHT22;68429;50.958;3.592;2024-02-28T09:52:08;8.40;99.90
54168;DHT22;68429;50.958;3.592;2024-02-28T09:54:34;8.40;99.90
54168;DHT22;68429;50.958;3.592;2024-02-28T09:57:00;8.30;99.90
54168;DHT22;68429;50.958;3.592;2024-02-28T09:59:26;8.50;99.90
54168;DHT22;68429;50.958;3.592;2024-02-28T10:01:57;8.50;99.90
54168;DHT22;68429;50.958;3.592;2024-02-28T10:04:26;8.50;99.90
54168;DHT22;68429;50.958;3.592;2024-02-28T10:06:53;8.30;99.90
54168;DHT22;68429;50.958;3.592;2024-02-28T10:09:19;8.40;99.90
54168;DHT22;68429;50.958;3.592;2024-02-28T10:11:45;8.50;99.90
54168;DHT22;68429;50.958;3.592;2024-02-28T10:14:12;8.40;99.90
54168;DHT22;68429;50.958;3.592;2024-02-28T10:16:42;8.40;99.90
54168;DHT22;68429;50.958;3.592;2024-02-28T10:19:08;8.50;99.90
54168;DHT22;68429;50.958;3.592;2024-02-28T10:21:33;8.50;99.90
54168;DHT22;68429;50.958;3.592;2024-02-28T10:23:59;8.30;99.90
54168;DHT22;68429;50.958;3.592;2024-02-28T10:26:25;8.20;99.90
54168;DHT22;68429;50.958;3.592;2024-02-28T10:28:51;8.10;99.90
54168;DHT22;68429;50.958;3.592;2024-02-28T10:31:17;7.90;99.90
54168;DHT22;68429;50.958;3.592;2024-02-28T10:33:42;7.90;99.90
54168;DHT22;68429;50.958;3.592;2024-02-28T10:36:08;7.80;99.90
54168;DHT22;68429;50.958;3.592;2024-02-28T10:38:34;7.80;99.90
54168;DHT22;68429;50.958;3.592;2024-02-28T10:41:02;7.90;99.90
54168;DHT22;68429;50.958;3.592;2024-02-28T10:43:31;7.90;99.90
54168;DHT22;68429;50.958;3.592;2024-02-28T10:45:57;8.10;99.90
54168;DHT22;68429;50.958;3.592;2024-02-28T10:48:27;8.20;99.90
54168;DHT22;68429;50.958;3.592;2024-02-28T10:50:53;8.20;99.90
54168;DHT22;68429;50.958;3.592;2024-02-28T10:53:34;8.10;99.90
54168;DHT22;68429;50.958;3.592;2024-02-28T10:56:02;8.10;99.90
54168;DHT22;68429;50.958;3.592;2024-02-28T10:58:35;8.00;99.90
54168;DHT22;68429;50.958;3.592;2024-02-28T11:01:05;7.80;99.90
54168;DHT22;68429;50.958;3.592;2024-02-28T11:03:31;7.80;99.90
54168;DHT22;68429;50.958;3.592;2024-02-28T11:05:57;7.80;99.90
54168;DHT22;68429;50.958;3.592;2024-02-28T11:08:24;7.90;99.90
54168;DHT22;68429;50.958;3.592;2024-02-28T11:11:03;7.90;99.90
54168;DHT22;68429;50.958;3.592;2024-02-28T11:13:32;8.00;99.90
54168;DHT22;68429;50.958;3.592;2024-02-28T11:16:07;7.90;99.90
54168;DHT22;68429;50.958;3.592;2024-02-28T11:18:33;8.00;99.90
54168;DHT22;68429;50.958;3.592;2024-02-28T11:20:59;8.10;99.90
54168;DHT22;68429;50.958;3.592;2024-02-28T11:23:24;8.10;99.90
54168;DHT22;68429;50.958;3.592;2024-02-28T11:25:51;8.20;99.90
54168;DHT22;68429;50.958;3.592;2024-02-28T11:28:17;8.30;99.90
54168;DHT22;68429;50.958;3.592;2024-02-28T11:30:47;8.10;99.90
54168;DHT22;68429;50.958;3.592;2024-02-28T11:33:13;8.20;99.90
54168;DHT22;68429;50.958;3.592;2024-02-28T11:35:39;8.20;99.90
54168;DHT22;68429;50.958;3.592;2024-02-28T11:38:06;8.50;99.90
54168;DHT22;68429;50.958;3.592;2024-02-28T11:40:32;8.50;99.90
54168;DHT22;68429;50.958;3.592;2024-02-28T11:42:58;8.50;99.90
54168;DHT22;68429;50.958;3.592;2024-02-28T11:45:24;8.40;99.90
54168;DHT22;68429;50.958;3.592;2024-02-28T11:47:51;8.40;99.90
54168;DHT22;68429;50.958;3.592;2024-02-28T11:50:16;8.50;99.90
54168;DHT22;68429;50.958;3.592;2024-02-28T11:52:44;8.70;99.90
54168;DHT22;68429;50.958;3.592;2024-02-28T11:55:09;8.70;99.90
54168;DHT22;68429;50.958;3.592;2024-02-28T11:57:37;8.90;99.90
54168;DHT22;68429;50.958;3.592;2024-02-28T12:00:07;8.90;99.90
54168;DHT22;68429;50.958;3.592;2024-02-28T12:02:34;8.80;99.90
54168;DHT22;68429;50.958;3.592;2024-02-28T12:05:03;8.90;99.90
54168;DHT22;68429;50.958;3.592;2024-02-28T12:07:30;8.90;99.90
54168;DHT22;68429;50.958;3.592;2024-02-28T12:09:56;9.10;99.90
54168;DHT22;68429;50.958;3.592;2024-02-28T12:12:24;9.40;99.90
54168;DHT22;68429;50.958;3.592;2024-02-28T12:14:51;9.50;99.90
54168;DHT22;68429;50.958;3.592;2024-02-28T12:17:17;9.50;99.90
54168;DHT22;68429;50.958;3.592;2024-02-28T12:19:43;9.50;99.90
54168;DHT22;68429;50.958;3.592;2024-02-28T12:22:09;9.50;99.90
54168;DHT22;68429;50.958;3.592;2024-02-28T12:24:36;9.60;99.90
54168;DHT22;68429;50.958;3.592;2024-02-28T12:27:01;9.80;99.90
54168;DHT22;68429;50.958;3.592;2024-02-28T12:29:27;9.70;99.90
54168;DHT22;68429;50.958;3.592;2024-02-28T12:31:53;9.70;99.90
54168;DHT22;68429;50.958;3.592;2024-02-28T12:34:18;9.50;99.90
54168;DHT22;68429;50.958;3.592;2024-02-28T12:36:44;9.80;99.90
54168;DHT22;68429;50.958;3.592;2024-02-28T12:39:10;10.00;99.90
54168;DHT22;68429;50.958;3.592;2024-02-28T12:41:40;9.80;99.90
54168;DHT22;68429;50.958;3.592;2024-02-28T12:44:06;9.80;99.90
54168;DHT22;68429;50.958;3.592;2024-02-28T12:46:33;9.60;99.90
54168;DHT22;68429;50.958;3.592;2024-02-28T12:48:59;9.70;99.90
54168;DHT22;68429;50.958;3.592;2024-02-28T12:51:57;9.80;99.90
54168;DHT22;68429;50.958;3.592;2024-02-28T12:54:23;9.90;99.90
54168;DHT22;68429;50.958;3.592;2024-02-28T12:56:49;9.90;99.90
54168;DHT22;68429;50.958;3.592;2024-02-28T12:59:15;9.90;99.90
54168;DHT22;68429;50.958;3.592;2024-02-28T13:01:41;9.80;99.90
54168;DHT22;68429;50.958;3.592;2024-02-28T13:04:07;9.80;99.90
54168;DHT22;68429;50.958;3.592;2024-02-28T13:06:33;9.80;99.90
54168;DHT22;68429;50.958;3.592;2024-02-28T13:08:58;9.90;99.90
54168;DHT22;68429;50.958;3.592;2024-02-28T13:11:24;10.20;99.90
54168;DHT22;68429;50.958;3.592;2024-02-28T13:13:51;10.30;99.90
54168;DHT22;68429;50.958;3.592;2024-02-28T13:16:18;10.30;99.90
54168;DHT22;68429;50.958;3.592;2024-02-28T13:18:44;10.80;99.90
54168;DHT22;68429;50.958;3.592;2024-02-28T13:21:10;10.60;99.90
54168;DHT22;68429;50.958;3.592;2024-02-28T13:23:36;10.40;99.90
54168;DHT22;68429;50.958;3.592;2024-02-28T13:26:06;10.30;99.90
54168;DHT22;68429;50.958;3.592;2024-02-28T13:28:32;10.70;99.90
54168;DHT22;68429;50.958;3.592;2024-02-28T13:30:59;11.00;99.90
54168;DHT22;68429;50.958;3.592;2024-02-28T13:33:25;11.60;99.90
54168;DHT22;68429;50.958;3.592;2024-02-28T13:35:52;11.60;99.90
54168;DHT22;68429;50.958;3.592;2024-02-28T13:38:18;12.10;99.90
54168;DHT22;68429;50.958;3.592;2024-02-28T13:40:45;12.50;99.90
54168;DHT22;68429;50.958;3.592;2024-02-28T13:43:11;12.30;99.90
54168;DHT22;68429;50.958;3.592;2024-02-28T13:45:46;12.50;99.90
54168;DHT22;68429;50.958;3.592;2024-02-28T13:48:21;12.60;99.90
54168;DHT22;68429;50.958;3.592;2024-02-28T13:50:49;12.30;99.90
54168;DHT22;68429;50.958;3.592;2024-02-28T13:53:15;12.00;99.90
54168;DHT22;68429;50.958;3.592;2024-02-28T13:55:42;11.70;99.90
54168;DHT22;68429;50.958;3.592;2024-02-28T13:58:11;11.50;99.90
54168;DHT22;68429;50.958;3.592;2024-02-28T14:00:38;11.30;99.90
54168;DHT22;68429;50.958;3.592;2024-02-28T14:03:07;11.00;99.90
54168;DHT22;68429;50.958;3.592;2024-02-28T14:05:33;11.00;99.90
54168;DHT22;68429;50.958;3.592;2024-02-28T14:07:59;11.10;99.90
54168;DHT22;68429;50.958;3.592;2024-02-28T14:10:25;11.20;99.90
54168;DHT22;68429;50.958;3.592;2024-02-28T14:12:51;11.70;99.90
54168;DHT22;68429;50.958;3.592;2024-02-28T14:15:20;11.60;99.90
54168;DHT22;68429;50.958;3.592;2024-02-28T14:17:46;11.30;99.90
54168;DHT22;68429;50.958;3.592;2024-02-28T14:20:12;11.30;99.90
54168;DHT22;68429;50.958;3.592;2024-02-28T14:22:38;11.30;99.90
54168;DHT22;68429;50.958;3.592;2024-02-28T14:25:10;11.30;99.90
54168;DHT22;68429;50.958;3.592;2024-02-28T14:27:36;11.40;99.90
54168;DHT22;68429;50.958;3.592;2024-02-28T14:30:03;11.20;99.90
54168;DHT22;68429;50.958;3.592;2024-02-28T14:32:33;11.30;99.90
54168;DHT22;68429;50.958;3.592;2024-02-28T14:34:59;11.30;99.90
54168;DHT22;68429;50.958;3.592;2024-02-28T14:37:24;11.70;99.90
54168;DHT22;68429;50.958;3.592;2024-02-28T14:39:50;11.90;99.90
54168;DHT22;68429;50.958;3.592;2024-02-28T14:42:16;11.90;99.90
54168;DHT22;68429;50.958;3.592;2024-02-28T14:44:41;11.50;99.90
54168;DHT22;68429;50.958;3.592;2024-02-28T14:47:07;11.10;99.90
54168;DHT22;68429;50.958;3.592;2024-02-28T14:49:33;11.00;99.90
54168;DHT22;68429;50.958;3.592;2024-02-28T14:51:58;11.20;99.90
54168;DHT22;68429;50.958;3.592;2024-02-28T14:54:25;11.30;99.90
54168;DHT22;68429;50.958;3.592;2024-02-28T14:56:52;11.20;99.90
54168;DHT22;68429;50.958;3.592;2024-02-28T14:59:18;11.10;99.90
54168;DHT22;68429;50.958;3.592;2024-02-28T15:01:43;11.20;99.90
54168;DHT22;68429;50.958;3.592;2024-02-28T15:04:09;11.40;99.90
54168;DHT22;68429;50.958;3.592;2024-02-28T15:06:35;11.40;99.90
54168;DHT22;68429;50.958;3.592;2024-02-28T15:09:01;11.00;99.90
54168;DHT22;68429;50.958;3.592;2024-02-28T15:11:29;10.90;99.90
54168;DHT22;68429;50.958;3.592;2024-02-28T15:13:54;10.80;99.90
54168;DHT22;68429;50.958;3.592;2024-02-28T15:16:20;10.80;99.90
54168;DHT22;68429;50.958;3.592;2024-02-28T15:18:46;10.90;99.90
54168;DHT22;68429;50.958;3.592;2024-02-28T15:21:11;10.60;99.90
54168;DHT22;68429;50.958;3.592;2024-02-28T15:23:37;10.30;99.90
54168;DHT22;68429;50.958;3.592;2024-02-28T15:26:03;10.20;99.90
54168;DHT22;68429;50.958;3.592;2024-02-28T15:28:28;10.30;99.90
54168;DHT22;68429;50.958;3.592;2024-02-28T15:30:55;10.30;99.90
54168;DHT22;68429;50.958;3.592;2024-02-28T15:33:21;10.30;99.90
54168;DHT22;68429;50.958;3.592;2024-02-28T15:35:47;10.40;99.90
54168;DHT22;68429;50.958;3.592;2024-02-28T15:38:13;10.20;99.90